Time;durP1;ratioP1;P1;durP2;ratioP2;P2;SDS_P1;SDS_P2;PMS_P1;PMS_P2;Temp;Humidity;BMP_temperature;BMP_pressure;BME280_temperature;BME280_humidity;BME280_pressure;Samples;Min_cycle;Max_cycle;Signal;HPM_P1;HPM_P2
2021/05/18 00:02:24;;;;;;;1.17;0.60;;;13.30;99.90;;;;;;5073438;28;20205;-65
2021/05/18 00:04:50;;;;;;;1.70;0.43;;;13.30;99.90;;;;;;5073151;28;20209;-65
2021/05/18 00:07:20;;;;;;;0.83;0.40;;;13.40;99.90;;;;;;5073406;28;20677;-65
2021/05/18 00:12:32;;;;;;;0.73;0.50;;;13.40;99.90;;;;;;5073613;28;20203;-65
2021/05/18 00:14:59;;;;;;;0.67;0.50;;;13.40;99.90;;;;;;5073183;28;20224;-64
2021/05/18 00:17:27;;;;;;;0.90;0.30;;;13.40;99.90;;;;;;5073148;28;20229;-64
2021/05/18 00:19:54;;;;;;;0.27;0.27;;;13.30;99.90;;;;;;5073356;28;20558;-65
2021/05/18 00:22:20;;;;;;;1.93;0.57;;;13.30;99.90;;;;;;5073437;28;20209;-65
2021/05/18 00:24:46;;;;;;;1.00;0.47;;;13.40;99.90;;;;;;5072946;28;20250;-64
2021/05/18 00:27:13;;;;;;;2.33;0.70;;;13.40;99.90;;;;;;5073123;28;20589;-65
2021/05/18 00:29:39;;;;;;;2.17;0.67;;;13.50;99.90;;;;;;5072924;28;20683;-64
2021/05/18 00:32:06;;;;;;;1.63;0.43;;;13.30;99.90;;;;;;5072906;28;20664;-64
2021/05/18 00:34:33;;;;;;;0.93;0.50;;;13.30;99.90;;;;;;5072815;28;20216;-65
2021/05/18 00:36:59;;;;;;;0.90;0.40;;;13.20;99.90;;;;;;5072793;28;20704;-64
2021/05/18 00:39:25;;;;;;;2.97;0.60;;;13.20;99.90;;;;;;5072774;28;20266;-65
2021/05/18 00:41:51;;;;;;;0.73;0.40;;;13.20;99.90;;;;;;5072922;28;20209;-64
2021/05/18 00:44:18;;;;;;;0.60;0.30;;;13.10;99.90;;;;;;5072350;28;20251;-64
2021/05/18 00:46:44;;;;;;;1.23;0.50;;;13.00;99.90;;;;;;5072561;28;20298;-64
2021/05/18 00:49:10;;;;;;;0.63;0.40;;;13.00;99.90;;;;;;5072737;28;20212;-65
2021/05/18 00:51:40;;;;;;;0.80;0.40;;;13.00;99.90;;;;;;5072689;28;20201;-65
2021/05/18 00:54:11;;;;;;;0.60;0.40;;;13.00;99.90;;;;;;5072389;28;20673;-64
2021/05/18 00:59:22;;;;;;;0.57;0.27;;;12.90;99.90;;;;;;5072483;28;20203;-64
2021/05/18 01:01:49;;;;;;;1.00;0.47;;;13.00;99.90;;;;;;5072432;28;20201;-65
2021/05/18 01:04:17;;;;;;;0.73;0.30;;;12.90;99.90;;;;;;5072315;28;20695;-65
2021/05/18 01:06:44;;;;;;;0.73;0.37;;;12.90;99.90;;;;;;5072612;28;20221;-65
2021/05/18 01:09:12;;;;;;;1.63;0.60;;;12.90;99.90;;;;;;5072207;28;20212;-65
2021/05/18 01:11:40;;;;;;;1.13;0.40;;;12.80;99.90;;;;;;5072163;28;20208;-65
2021/05/18 01:14:11;;;;;;;1.53;0.57;;;12.80;99.90;;;;;;5072030;28;20290;-65
2021/05/18 01:16:41;;;;;;;1.03;0.60;;;12.80;99.90;;;;;;5071912;28;20759;-65
2021/05/18 01:19:08;;;;;;;2.37;0.60;;;12.70;99.90;;;;;;5071964;28;20259;-65
2021/05/18 01:21:35;;;;;;;1.47;0.57;;;12.70;99.90;;;;;;5072015;28;20216;-65
2021/05/18 01:24:02;;;;;;;0.50;0.40;;;12.70;99.90;;;;;;5071740;28;20258;-65
2021/05/18 01:26:30;;;;;;;0.70;0.40;;;12.70;99.90;;;;;;5071895;28;20217;-65
2021/05/18 01:28:56;;;;;;;0.50;0.30;;;12.70;99.90;;;;;;5071709;28;20208;-64
2021/05/18 01:31:24;;;;;;;0.73;0.40;;;12.60;99.90;;;;;;5071755;28;20627;-65
2021/05/18 01:33:51;;;;;;;0.60;0.40;;;12.60;99.90;;;;;;5071905;28;20204;-65
2021/05/18 01:36:20;;;;;;;0.70;0.57;;;12.50;99.90;;;;;;5071573;28;20228;-65
2021/05/18 01:38:54;;;;;;;0.33;0.30;;;12.50;99.90;;;;;;5072336;28;20209;-64
2021/05/18 01:44:07;;;;;;;0.37;0.33;;;12.40;99.90;;;;;;5073499;28;20200;-65
2021/05/18 01:46:34;;;;;;;0.50;0.20;;;12.30;99.90;;;;;;5071874;28;20266;-64
2021/05/18 01:49:02;;;;;;;0.37;0.30;;;12.30;99.90;;;;;;5071112;28;20573;-64
2021/05/18 01:51:31;;;;;;;0.83;0.40;;;12.20;99.90;;;;;;5071489;28;20209;-64
2021/05/18 01:54:04;;;;;;;0.27;0.27;;;12.30;99.90;;;;;;5071381;28;20211;-65
2021/05/18 01:56:40;;;;;;;0.87;0.50;;;12.30;99.90;;;;;;5070792;28;20228;-65
2021/05/18 01:59:08;;;;;;;0.33;0.30;;;12.30;99.90;;;;;;5071129;28;20629;-64
2021/05/18 02:01:35;;;;;;;0.90;0.50;;;12.30;99.90;;;;;;5071181;28;20211;-65
2021/05/18 02:04:02;;;;;;;0.43;0.40;;;12.30;99.90;;;;;;5071317;28;20231;-65
2021/05/18 02:06:29;;;;;;;0.67;0.50;;;12.40;99.90;;;;;;5071409;28;20224;-65
2021/05/18 02:08:55;;;;;;;1.60;0.50;;;12.30;99.90;;;;;;5071343;28;20212;-65
2021/05/18 02:11:23;;;;;;;2.80;0.50;;;12.40;99.90;;;;;;5071391;28;20205;-65
2021/05/18 02:13:51;;;;;;;0.93;0.50;;;12.40;99.90;;;;;;5071208;28;20204;-64
2021/05/18 02:16:22;;;;;;;1.87;0.50;;;12.50;99.90;;;;;;5071183;28;20254;-65
2021/05/18 02:19:06;;;;;;;1.70;0.40;;;12.50;99.90;;;;;;5071284;28;20219;-65
2021/05/18 02:21:52;;;;;;;1.47;0.40;;;12.50;99.90;;;;;;5071220;28;20208;-65
2021/05/18 02:24:43;;;;;;;0.37;0.27;;;12.50;99.90;;;;;;5070909;28;20205;-65
2021/05/18 02:27:11;;;;;;;1.03;0.40;;;12.50;99.90;;;;;;5070895;28;20244;-65
2021/05/18 02:29:37;;;;;;;0.57;0.50;;;12.50;99.90;;;;;;5071367;28;20231;-64
2021/05/18 02:32:04;;;;;;;0.83;0.30;;;12.50;99.90;;;;;;5071278;28;20677;-65
2021/05/18 02:34:30;;;;;;;4.43;0.77;;;12.50;99.90;;;;;;5071119;28;20211;-66
2021/05/18 02:36:57;;;;;;;0.37;0.23;;;12.50;99.90;;;;;;5070651;28;20228;-66
2021/05/18 02:39:23;;;;;;;0.73;0.50;;;12.50;99.90;;;;;;5070956;28;20300;-65
2021/05/18 02:41:49;;;;;;;1.07;0.37;;;12.50;99.90;;;;;;5071187;28;20258;-65
2021/05/18 02:44:21;;;;;;;0.93;0.50;;;12.50;99.90;;;;;;5070629;28;20207;-65
2021/05/18 02:49:32;;;;;;;0.30;0.30;;;12.50;99.90;;;;;;5071160;28;20203;-65
2021/05/18 02:51:58;;;;;;;1.07;0.47;;;12.50;99.90;;;;;;5070925;28;20211;-65
2021/05/18 02:54:26;;;;;;;0.73;0.40;;;12.50;99.90;;;;;;5070805;28;20467;-65
2021/05/18 02:56:54;;;;;;;1.37;0.30;;;12.50;99.90;;;;;;5070676;28;20325;-65
2021/05/18 02:59:22;;;;;;;1.13;0.30;;;12.50;99.90;;;;;;5070532;28;20209;-65
2021/05/18 03:01:51;;;;;;;2.60;0.47;;;12.50;99.90;;;;;;5070583;28;20204;-65
2021/05/18 03:04:18;;;;;;;1.03;0.60;;;12.60;99.90;;;;;;5070645;28;20205;-65
2021/05/18 03:06:47;;;;;;;0.60;0.37;;;12.50;99.90;;;;;;5070652;28;20247;-65
2021/05/18 03:09:14;;;;;;;2.60;2.13;;;12.40;99.90;;;;;;5073769;28;20287;-64
2021/05/18 03:11:42;;;;;;;0.60;0.60;;;12.30;99.90;;;;;;5074662;28;20205;-67
2021/05/18 03:14:09;;;;;;;0.83;0.70;;;12.30;99.90;;;;;;5074337;28;20205;-65
2021/05/18 03:16:37;;;;;;;1.83;1.30;;;12.20;99.90;;;;;;5074046;28;20229;-65
2021/05/18 03:19:04;;;;;;;4.07;1.57;;;12.20;99.90;;;;;;5074320;28;20205;-65
2021/05/18 03:21:30;;;;;;;2.10;1.10;;;12.30;99.90;;;;;;5074431;28;20290;-64
2021/05/18 03:23:57;;;;;;;1.57;0.70;;;12.10;99.90;;;;;;5074065;28;20201;-65
2021/05/18 03:26:24;;;;;;;28.90;16.70;;;12.00;99.90;;;;;;5074288;28;20632;-65
2021/05/18 03:28:56;;;;;;;0.87;0.50;;;12.00;99.90;;;;;;5074066;28;20209;-65
2021/05/18 03:36:51;;;;;;;0.93;0.80;;;12.20;99.90;;;;;;5089137;22;20306;-62
2021/05/18 03:39:18;;;;;;;0.57;0.40;;;12.20;99.90;;;;;;5075128;28;20684;-63
2021/05/18 03:41:53;;;;;;;0.40;0.30;;;12.20;99.90;;;;;;5075410;28;20429;-64
2021/05/18 03:44:24;;;;;;;2.53;0.73;;;12.30;99.90;;;;;;5075666;28;20324;-63
2021/05/18 03:52:26;;;;;;;1.60;0.80;;;12.40;99.90;;;;;;5035893;28;20596;-64
2021/05/18 03:58:31;;;;;;;2.80;1.73;;;12.50;99.90;;;;;;5075417;28;20209;-63
2021/05/18 04:03:24;;;;;;;0.50;0.30;;;12.30;99.90;;;;;;5074663;28;20200;-64
2021/05/18 04:11:49;;;;;;;1.93;0.60;;;12.40;99.90;;;;;;5074469;28;20223;-64
2021/05/18 04:17:00;;;;;;;3.23;1.50;;;12.50;99.90;;;;;;5073876;28;20224;-63
2021/05/18 04:19:35;;;;;;;1.57;0.97;;;12.60;99.90;;;;;;5074077;28;20235;-64
2021/05/18 04:22:28;;;;;;;2.10;0.67;;;12.50;99.90;;;;;;5075458;28;20562;-63
2021/05/18 04:25:17;;;;;;;0.47;0.47;;;12.60;99.90;;;;;;5074368;28;20303;-64
2021/05/18 04:38:52;;;;;;;1.50;0.43;;;13.00;99.90;;;;;;5074194;28;20204;-64
2021/05/18 04:49:54;;;;;;;1.20;0.70;;;13.20;99.90;;;;;;5074121;28;20227;-63
2021/05/18 04:52:22;;;;;;;1.27;0.70;;;13.30;99.90;;;;;;5074188;28;20208;-64
2021/05/18 04:55:23;;;;;;;1.17;0.77;;;13.40;99.90;;;;;;5073428;28;20209;-65
2021/05/18 05:00:40;;;;;;;1.27;0.57;;;13.50;99.90;;;;;;5073971;28;20711;-65
2021/05/18 05:08:42;;;;;;;4.43;1.70;;;13.50;99.90;;;;;;5073109;28;20577;-65
2021/05/18 05:16:49;;;;;;;2.73;1.90;;;13.80;99.90;;;;;;5073125;28;20370;-66
2021/05/18 05:19:16;;;;;;;1.33;0.90;;;13.80;99.90;;;;;;5072914;28;20201;-65
2021/05/18 05:21:42;;;;;;;1.10;0.70;;;13.80;99.90;;;;;;5072788;28;20575;-65
2021/05/18 05:24:11;;;;;;;2.23;1.00;;;13.90;99.90;;;;;;5074759;28;20212;-65
2021/05/18 05:26:40;;;;;;;1.10;0.70;;;13.90;99.90;;;;;;5073726;28;20700;-65
2021/05/18 05:29:07;;;;;;;1.40;1.10;;;13.90;99.90;;;;;;5072853;28;20196;-65
2021/05/18 05:31:34;;;;;;;1.13;0.77;;;14.10;99.90;;;;;;5071492;28;20668;-64
2021/05/18 05:34:00;;;;;;;1.63;0.60;;;14.20;99.90;;;;;;5072455;28;20205;-64
2021/05/18 05:36:27;;;;;;;2.13;0.90;;;14.30;99.90;;;;;;5072755;28;20749;-65
2021/05/18 05:38:59;;;;;;;3.83;1.90;;;14.50;99.90;;;;;;5072768;28;20205;-64
2021/05/18 05:41:26;;;;;;;1.97;0.90;;;14.70;99.90;;;;;;5072947;28;20250;-65
2021/05/18 05:43:53;;;;;;;2.03;0.83;;;14.80;99.90;;;;;;5072797;28;20213;-65
2021/05/18 05:46:19;;;;;;;2.93;1.13;;;14.80;99.90;;;;;;5072958;28;20229;-65
2021/05/18 05:48:52;;;;;;;0.90;0.87;;;14.90;99.90;;;;;;5072638;28;20209;-66
2021/05/18 05:51:19;;;;;;;0.77;0.77;;;14.90;99.90;;;;;;5072701;28;20691;-66
2021/05/18 05:53:45;;;;;;;1.13;1.03;;;14.90;99.90;;;;;;5072251;28;20209;-64
2021/05/18 05:56:11;;;;;;;1.23;0.70;;;14.90;99.90;;;;;;5071794;28;20692;-65
2021/05/18 05:58:37;;;;;;;1.10;0.80;;;14.90;99.90;;;;;;5072211;28;20209;-65
2021/05/18 06:01:04;;;;;;;3.10;0.70;;;14.80;99.90;;;;;;5072096;28;20201;-64
2021/05/18 06:03:31;;;;;;;1.43;0.90;;;14.70;99.90;;;;;;5072535;28;20291;-65
2021/05/18 06:05:57;;;;;;;1.70;0.80;;;14.70;99.90;;;;;;5073550;28;20240;-64
2021/05/18 06:08:24;;;;;;;1.17;0.60;;;14.60;99.90;;;;;;5073588;28;20716;-64
2021/05/18 06:10:54;;;;;;;2.13;0.90;;;14.40;99.90;;;;;;5072312;28;20237;-64
2021/05/18 06:13:43;;;;;;;1.73;1.27;;;14.50;99.90;;;;;;5072696;28;20208;-65
2021/05/18 06:16:36;;;;;;;2.37;0.80;;;14.60;99.90;;;;;;5072414;28;20249;-65
2021/05/18 06:43:51;;;;;;;1.40;1.00;;;13.50;99.90;;;;;;5081523;28;20200;-64
2021/05/18 06:46:23;;;;;;;2.20;1.40;;;13.70;99.90;;;;;;5083789;28;20220;-63
2021/05/18 06:48:56;;;;;;;2.23;1.20;;;13.80;99.90;;;;;;5083463;28;20204;-63
2021/05/18 06:51:23;;;;;;;1.70;1.10;;;14.00;99.90;;;;;;5082979;28;20200;-62
2021/05/18 06:53:50;;;;;;;3.10;1.17;;;14.30;99.90;;;;;;5080862;28;20201;-63
2021/05/18 06:56:16;;;;;;;3.57;1.10;;;14.70;99.90;;;;;;5080739;28;20695;-64
2021/05/18 07:00:07;;;;;;;2.77;1.00;;;14.90;99.90;;;;;;5080224;28;20291;-65
2021/05/18 07:01:34;;;;;;;2.90;0.90;;;15.30;99.90;;;;;;5078016;28;20292;-63
2021/05/18 07:04:06;;;;;;;5.80;0.90;;;15.60;99.90;;;;;;5078179;28;20224;-65
2021/05/18 07:06:44;;;;;;;1.13;0.80;;;15.90;99.90;;;;;;5078241;28;20228;-64
2021/05/18 07:09:11;;;;;;;2.90;1.77;;;16.20;99.90;;;;;;5077603;28;20204;-64
2021/05/18 07:11:37;;;;;;;3.50;1.30;;;16.70;99.90;;;;;;5078216;28;20304;-65
2021/05/18 07:14:04;;;;;;;1.67;0.87;;;17.00;99.90;;;;;;5077630;28;20200;-66
2021/05/18 07:16:31;;;;;;;1.83;0.70;;;17.40;99.90;;;;;;5077531;28;20565;-63
2021/05/18 07:18:57;;;;;;;1.40;0.70;;;17.90;99.90;;;;;;5078237;28;20220;-60
2021/05/18 07:21:24;;;;;;;2.50;0.57;;;18.10;99.90;;;;;;5078669;28;20295;-60
2021/05/18 07:23:52;;;;;;;1.43;1.00;;;18.10;99.90;;;;;;5079185;28;20238;-59
2021/05/18 07:26:18;;;;;;;1.93;0.67;;;18.40;99.90;;;;;;5078777;28;20224;-59
2021/05/18 07:28:44;;;;;;;3.27;0.83;;;18.60;99.90;;;;;;5078438;28;20204;-59
2021/05/18 07:31:11;;;;;;;3.50;0.80;;;18.70;99.90;;;;;;5078652;28;20663;-59
2021/05/18 07:33:37;;;;;;;2.77;0.60;;;18.50;99.90;;;;;;5078635;28;20205;-59
2021/05/18 07:36:08;;;;;;;1.43;0.80;;;18.40;99.90;;;;;;5078177;28;20233;-59
2021/05/18 07:38:35;;;;;;;1.90;0.80;;;18.20;99.90;;;;;;5078313;28;20263;-59
2021/05/18 07:41:02;;;;;;;2.17;0.80;;;18.30;99.90;;;;;;5078614;28;20757;-59
2021/05/18 07:43:28;;;;;;;2.10;1.37;;;18.30;99.90;;;;;;5078152;28;20232;-59
2021/05/18 07:45:56;;;;;;;1.80;1.30;;;18.20;99.80;;;;;;5078035;28;20228;-59
2021/05/18 07:48:27;;;;;;;1.53;0.73;;;18.20;99.60;;;;;;5078981;28;20299;-59
2021/05/18 07:51:03;;;;;;;3.53;0.90;;;18.40;99.00;;;;;;5078844;28;20676;-59
2021/05/18 07:59:16;;;;;;;0.98;0.60;;;21.20;94.90;;;;;;5074521;28;20204;-59
2021/05/18 08:07:13;;;;;;;1.77;0.80;;;21.90;91.50;;;;;;5074002;28;20247;-60
2021/05/18 08:09:43;;;;;;;2.30;1.00;;;21.40;92.20;;;;;;5073938;28;20209;-60
2021/05/18 08:12:11;;;;;;;4.20;1.02;;;20.90;91.60;;;;;;5074244;28;20219;-60
2021/05/18 08:14:40;;;;;;;1.90;1.10;;;20.20;92.40;;;;;;5074104;28;20501;-60
2021/05/18 08:17:18;;;;;;;3.53;1.00;;;19.70;92.70;;;;;;5074134;28;20294;-60
2021/05/18 10:35:46;;;;;;;4.20;1.17;;;18.10;94.10;;;;;;5030738;28;20321;-63
2021/05/18 10:38:19;;;;;;;3.13;1.30;;;18.10;94.30;;;;;;5030248;28;20725;-63
2021/05/18 10:40:46;;;;;;;1.07;0.50;;;18.00;95.60;;;;;;5030786;28;20242;-61
2021/05/18 10:43:25;;;;;;;4.43;2.90;;;17.90;94.10;;;;;;5030957;28;20206;-63
2021/05/18 10:46:23;;;;;;;3.80;1.23;;;17.70;93.90;;;;;;5030799;28;20222;-63
2021/05/18 10:49:08;;;;;;;4.93;2.77;;;17.70;92.30;;;;;;5030755;28;20213;-63
2021/05/18 10:51:43;;;;;;;7.10;3.33;;;17.80;91.30;;;;;;5030520;28;20669;-62
2021/05/18 10:54:17;;;;;;;3.50;0.80;;;17.90;90.30;;;;;;5030891;28;20209;-62
2021/05/18 10:57:11;;;;;;;3.03;1.10;;;18.10;86.80;;;;;;5031246;28;20233;-64
2021/05/18 10:59:39;;;;;;;1.53;0.73;;;18.50;89.70;;;;;;5031060;28;20686;-61
2021/05/18 11:02:08;;;;;;;2.77;0.83;;;19.10;85.60;;;;;;5030880;28;20237;-61
2021/05/18 11:04:37;;;;;;;1.67;0.70;;;19.50;84.70;;;;;;5030876;28;20210;-62
2021/05/18 11:07:04;;;;;;;1.00;0.60;;;19.70;84.10;;;;;;5031388;28;20320;-62
2021/05/18 11:09:31;;;;;;;1.63;0.60;;;19.80;80.60;;;;;;5030365;28;20202;-61
2021/05/18 11:12:00;;;;;;;1.50;0.80;;;19.90;78.10;;;;;;5030702;28;20232;-61
2021/05/18 11:14:49;;;;;;;1.67;0.70;;;20.30;80.00;;;;;;5030320;28;20214;-61
2021/05/18 11:17:24;;;;;;;3.20;0.80;;;20.50;78.00;;;;;;5025936;28;20237;-63
2021/05/18 11:20:02;;;;;;;1.83;0.80;;;20.70;77.20;;;;;;5030263;28;20213;-62
2021/05/18 11:25:27;;;;;;;2.17;0.60;;;21.40;71.80;;;;;;5030241;28;20205;-66
2021/05/18 11:28:04;;;;;;;1.95;0.50;;;21.10;71.30;;;;;;5030308;28;20209;-68
2021/05/18 11:30:30;;;;;;;2.10;0.60;;;21.00;71.90;;;;;;5032297;28;20728;-68
2021/05/18 11:32:57;;;;;;;4.07;1.00;;;21.10;72.00;;;;;;5034252;28;20213;-64
2021/05/18 11:35:23;;;;;;;3.58;0.70;;;21.00;76.20;;;;;;5033807;28;20317;-66
2021/05/18 11:38:03;;;;;;;2.78;0.90;;;21.00;79.70;;;;;;5033802;28;20608;-66
2021/05/18 11:40:38;;;;;;;3.42;1.17;;;20.80;82.50;;;;;;5034586;28;20206;-68
2021/05/18 11:43:20;;;;;;;3.28;1.02;;;20.60;83.10;;;;;;5034166;28;20661;-65
2021/05/18 11:45:48;;;;;;;4.30;0.90;;;20.60;84.90;;;;;;5033934;28;20616;-62
2021/05/18 11:48:17;;;;;;;2.88;0.70;;;20.60;84.50;;;;;;5033768;28;20205;-63
2021/05/18 11:50:44;;;;;;;3.28;0.90;;;20.60;81.80;;;;;;5034028;28;20214;-63
2021/05/18 11:53:27;;;;;;;4.50;1.08;;;20.40;79.40;;;;;;5033737;28;20217;-63
2021/05/18 11:55:53;;;;;;;1.73;0.70;;;20.30;79.30;;;;;;5033980;28;20238;-63
2021/05/18 11:58:21;;;;;;;1.73;0.98;;;20.40;74.70;;;;;;5033720;28;20222;-64
2021/05/18 12:00:47;;;;;;;3.13;0.88;;;20.70;74.20;;;;;;5033526;28;20206;-65
2021/05/18 12:03:13;;;;;;;3.50;0.90;;;20.90;70.30;;;;;;5033640;28;20213;-64
2021/05/18 12:05:54;;;;;;;1.67;0.65;;;21.10;70.10;;;;;;5033403;28;20276;-64
2021/05/18 12:08:31;;;;;;;3.45;0.43;;;21.10;69.20;;;;;;5033686;28;20202;-63
2021/05/18 12:11:11;;;;;;;5.55;0.63;;;21.00;66.50;;;;;;5033485;28;20214;-65
2021/05/18 12:13:39;;;;;;;0.95;0.40;;;21.20;68.50;;;;;;5033322;28;20217;-66
2021/05/18 12:16:07;;;;;;;0.98;0.50;;;21.00;65.30;;;;;;5033129;28;20713;-65
2021/05/18 12:18:35;;;;;;;1.60;0.80;;;20.90;66.20;;;;;;5033534;28;20250;-66
2021/05/18 12:21:03;;;;;;;2.67;1.10;;;20.70;64.20;;;;;;5033701;28;20212;-65
2021/05/18 12:23:30;;;;;;;0.73;0.32;;;20.60;65.90;;;;;;5033480;28;20206;-65
2021/05/18 12:26:09;;;;;;;3.70;2.53;;;20.50;68.90;;;;;;5033665;28;20297;-66
2021/05/18 12:28:35;;;;;;;1.42;0.57;;;20.70;69.50;;;;;;5033678;28;20668;-64
2021/05/18 12:31:03;;;;;;;0.52;0.28;;;21.00;67.00;;;;;;5033745;28;20207;-65
2021/05/18 12:33:36;;;;;;;0.60;0.22;;;21.20;64.80;;;;;;5033449;28;20291;-64
2021/05/18 12:36:04;;;;;;;1.75;0.63;;;21.00;61.70;;;;;;5033175;28;20731;-66
2021/05/18 12:38:31;;;;;;;0.90;0.70;;;20.60;62.80;;;;;;5033035;28;20234;-66
2021/05/18 12:41:02;;;;;;;2.65;1.00;;;20.40;65.50;;;;;;5032464;28;20665;-65
2021/05/18 12:43:39;;;;;;;2.13;1.27;;;20.20;62.50;;;;;;5033110;28;20214;-65
2021/05/18 12:46:10;;;;;;;1.58;0.60;;;20.00;63.70;;;;;;5033171;28;20233;-66
2021/05/18 12:48:37;;;;;;;2.10;0.90;;;20.10;62.60;;;;;;5032738;28;20206;-67
2021/05/18 12:51:16;;;;;;;4.77;0.90;;;20.10;62.30;;;;;;5032937;28;20276;-66
2021/05/18 12:53:42;;;;;;;2.05;0.90;;;20.10;64.40;;;;;;5032852;28;21027;-66
2021/05/18 12:56:12;;;;;;;3.22;0.88;;;19.90;65.10;;;;;;5032472;28;20226;-66
2021/05/18 12:58:38;;;;;;;3.42;0.63;;;20.00;63.60;;;;;;5032380;28;20242;-67
2021/05/18 13:01:07;;;;;;;1.30;0.60;;;20.10;63.70;;;;;;5032800;28;20218;-66
2021/05/18 13:03:34;;;;;;;2.83;0.70;;;20.40;63.90;;;;;;5032143;28;20213;-66
2021/05/18 13:06:01;;;;;;;1.13;0.38;;;20.80;63.30;;;;;;5032324;28;20649;-66
2021/05/18 13:08:32;;;;;;;2.92;0.60;;;20.90;63.70;;;;;;5032205;28;20202;-65
2021/05/18 13:11:16;;;;;;;1.83;0.77;;;21.00;63.80;;;;;;5032658;28;20273;-65
2021/05/18 13:13:52;;;;;;;1.50;0.52;;;21.30;65.00;;;;;;5032184;28;20206;-66
2021/05/18 13:16:21;;;;;;;2.28;0.70;;;21.60;65.10;;;;;;5032161;28;20237;-65
2021/05/18 13:18:59;;;;;;;1.73;0.68;;;21.80;64.20;;;;;;5032067;28;20697;-66
2021/05/18 13:21:32;;;;;;;1.05;0.65;;;21.70;63.90;;;;;;5032516;28;20206;-68
2021/05/18 13:26:42;;;;;;;0.85;0.50;;;21.00;64.50;;;;;;5031042;28;20225;-66
2021/05/18 13:29:15;;;;;;;1.25;0.50;;;20.90;60.30;;;;;;5031836;28;20207;-64
2021/05/18 13:31:42;;;;;;;0.75;0.43;;;20.60;61.10;;;;;;5032624;28;20308;-66
2021/05/18 13:34:09;;;;;;;1.83;0.70;;;20.60;59.80;;;;;;5032543;28;20266;-64
2021/05/18 13:36:36;;;;;;;2.25;0.80;;;20.60;61.90;;;;;;5032003;28;20289;-65
2021/05/18 13:39:05;;;;;;;2.28;0.68;;;20.70;62.70;;;;;;5031826;28;20206;-64
2021/05/18 13:41:31;;;;;;;7.82;1.35;;;20.80;62.40;;;;;;5032394;28;20214;-66
2021/05/18 13:43:58;;;;;;;3.70;0.55;;;20.80;62.80;;;;;;5032249;28;20203;-66
2021/05/18 13:46:24;;;;;;;2.40;0.98;;;20.80;61.60;;;;;;5032422;28;20740;-66
2021/05/18 13:48:50;;;;;;;2.05;1.15;;;21.00;61.50;;;;;;5032049;28;20662;-66
2021/05/18 13:51:17;;;;;;;2.63;0.70;;;21.20;62.50;;;;;;5032286;28;20221;-66
2021/05/18 13:53:45;;;;;;;3.25;0.60;;;21.10;63.10;;;;;;5030879;28;20213;-67
2021/05/18 13:56:11;;;;;;;3.15;0.73;;;21.30;63.00;;;;;;5031539;28;20230;-65
2021/05/18 13:58:38;;;;;;;2.58;1.20;;;21.40;63.80;;;;;;5031631;28;20602;-67
2021/05/18 14:01:05;;;;;;;2.30;0.85;;;21.70;63.50;;;;;;5031779;28;20625;-67
2021/05/18 14:03:31;;;;;;;2.47;0.70;;;21.80;61.40;;;;;;5031761;28;20279;-67
2021/05/18 14:05:58;;;;;;;1.50;0.70;;;22.20;60.40;;;;;;5031407;28;20252;-66
2021/05/18 14:08:27;;;;;;;1.95;0.73;;;22.50;58.90;;;;;;5031211;28;20229;-69
2021/05/18 14:11:03;;;;;;;1.30;0.57;;;22.60;57.10;;;;;;5031360;28;20214;-67
2021/05/18 14:13:32;;;;;;;4.30;0.52;;;22.40;57.00;;;;;;5031377;28;20241;-65
2021/05/18 14:15:59;;;;;;;2.38;0.50;;;22.10;58.00;;;;;;5031265;28;20230;-66
2021/05/18 14:18:27;;;;;;;5.05;1.20;;;21.80;59.50;;;;;;5031265;28;20230;-66
2021/05/18 14:20:53;;;;;;;1.10;0.45;;;21.40;60.30;;;;;;5031228;28;20701;-64
2021/05/18 14:23:22;;;;;;;0.70;0.57;;;21.30;62.30;;;;;;5031179;28;20667;-65
2021/05/18 14:25:50;;;;;;;3.10;0.98;;;21.00;63.60;;;;;;5031563;28;20264;-66
2021/05/18 14:28:16;;;;;;;8.88;1.45;;;20.20;69.60;;;;;;5030768;28;20582;-66
2021/05/18 14:30:43;;;;;;;2.33;0.80;;;19.60;76.00;;;;;;5031060;28;20213;-66
2021/05/18 14:33:09;;;;;;;2.67;0.67;;;19.10;80.70;;;;;;5031017;28;20272;-66
2021/05/18 14:35:36;;;;;;;0.60;0.23;;;18.50;81.50;;;;;;5030596;28;20226;-67
2021/05/18 14:38:07;;;;;;;2.53;0.67;;;18.00;82.90;;;;;;5029708;28;20326;-65
2021/05/18 14:46:27;;;;;;;1.40;0.37;;;17.50;87.30;;;;;;5031054;28;20292;-65
2021/05/18 14:54:45;;;;;;;1.57;0.73;;;18.50;80.00;;;;;;5030893;28;20252;-65
2021/05/18 14:57:11;;;;;;;2.17;0.50;;;18.70;77.20;;;;;;5030718;28;20233;-64
2021/05/18 14:59:38;;;;;;;1.00;0.40;;;18.90;77.20;;;;;;5031020;28;20221;-65
2021/05/18 15:02:04;;;;;;;1.83;0.77;;;19.20;77.00;;;;;;5031623;28;20206;-64
2021/05/18 15:04:31;;;;;;;1.77;0.50;;;19.40;76.40;;;;;;5034482;28;20590;-65
2021/05/18 15:06:58;;;;;;;1.57;0.43;;;19.40;75.20;;;;;;5038279;28;20532;-65
2021/05/18 15:09:24;;;;;;;1.83;0.50;;;19.30;76.70;;;;;;5042166;28;20206;-65
2021/05/18 15:11:51;;;;;;;3.17;1.03;;;19.20;77.80;;;;;;5040364;28;20210;-65
2021/05/18 15:14:17;;;;;;;4.90;0.80;;;19.10;78.10;;;;;;5038662;28;20202;-65
2021/05/18 15:16:44;;;;;;;1.50;0.90;;;19.00;79.20;;;;;;5038747;28;20240;-66
2021/05/18 15:19:12;;;;;;;1.77;0.53;;;19.10;79.90;;;;;;5038865;28;20217;-65
2021/05/18 15:21:39;;;;;;;1.70;0.70;;;19.10;80.00;;;;;;5038445;28;20237;-65
2021/05/18 15:24:06;;;;;;;4.43;0.90;;;18.90;79.50;;;;;;5038280;28;20206;-65
2021/05/18 15:26:33;;;;;;;2.07;0.90;;;18.70;80.30;;;;;;5036409;28;20230;-65
2021/05/18 15:29:00;;;;;;;2.50;1.30;;;18.40;80.80;;;;;;5035544;28;20220;-66
2021/05/18 15:31:27;;;;;;;1.43;0.80;;;18.20;78.70;;;;;;5035420;28;20214;-65
2021/05/18 15:33:54;;;;;;;3.77;0.93;;;18.20;79.40;;;;;;5034954;28;20210;-64
2021/05/18 15:36:20;;;;;;;5.70;1.10;;;18.10;80.10;;;;;;5076879;22;20232;-61
2021/05/18 15:38:47;;;;;;;2.70;0.70;;;18.30;79.20;;;;;;5094130;28;20220;-62
2021/05/18 15:41:14;;;;;;;2.27;0.60;;;18.60;77.90;;;;;;5093560;28;20240;-63
2021/05/18 15:43:41;;;;;;;3.73;1.63;;;19.00;76.40;;;;;;5093898;28;20200;-63
2021/05/18 15:46:07;;;;;;;1.67;0.83;;;19.30;75.50;;;;;;5094255;28;20311;-62
2021/05/18 15:48:34;;;;;;;4.05;3.58;;;19.40;73.80;;;;;;5093673;28;20204;-62
2021/05/18 15:51:02;;;;;;;0.73;0.20;;;19.50;70.10;;;;;;5094239;28;20201;-62
2021/05/18 15:53:29;;;;;;;1.48;0.35;;;19.70;69.10;;;;;;5093968;28;20336;-63
2021/05/18 15:55:57;;;;;;;2.05;0.30;;;20.10;66.50;;;;;;5093891;28;20221;-63
2021/05/18 15:58:23;;;;;;;0.70;0.30;;;20.30;65.90;;;;;;5094049;28;20224;-64
2021/05/18 16:00:51;;;;;;;2.35;0.60;;;20.40;64.20;;;;;;5093945;28;20209;-63
2021/05/18 16:03:18;;;;;;;1.27;0.65;;;20.30;64.90;;;;;;5094178;28;20603;-63
2021/05/18 16:05:44;;;;;;;0.98;0.57;;;20.00;64.40;;;;;;5093911;28;20262;-63
2021/05/18 16:10:52;;;;;;;2.87;0.77;;;19.30;68.20;;;;;;5092865;28;20687;-61
2021/05/18 16:13:19;;;;;;;5.77;2.03;;;18.90;69.70;;;;;;5093784;28;20672;-65
2021/05/18 16:15:45;;;;;;;1.93;0.73;;;18.60;71.80;;;;;;5092941;28;20551;-64
2021/05/18 16:18:11;;;;;;;1.73;0.60;;;18.20;73.40;;;;;;5093412;28;20220;-62
2021/05/18 16:20:37;;;;;;;2.37;0.83;;;18.00;75.10;;;;;;5093737;28;20208;-64
2021/05/18 16:23:05;;;;;;;0.83;0.67;;;17.90;76.90;;;;;;5093702;28;20299;-63
2021/05/18 16:25:32;;;;;;;1.03;0.70;;;17.80;77.10;;;;;;5093228;28;20204;-63
2021/05/18 16:27:58;;;;;;;2.87;0.93;;;17.50;76.90;;;;;;5093171;28;20207;-62
2021/05/18 16:30:24;;;;;;;1.80;0.63;;;17.10;77.90;;;;;;5093243;28;20212;-63
2021/05/18 16:32:50;;;;;;;2.40;0.70;;;16.80;80.10;;;;;;5093932;28;20205;-64
2021/05/18 16:35:17;;;;;;;3.43;0.67;;;16.60;82.90;;;;;;5093268;28;20675;-63
2021/05/18 16:37:43;;;;;;;1.93;0.70;;;16.70;83.90;;;;;;5093484;28;20231;-63
2021/05/18 16:40:10;;;;;;;3.63;0.70;;;16.90;85.40;;;;;;5093098;28;20212;-65
2021/05/18 16:42:38;;;;;;;1.73;0.63;;;17.20;83.00;;;;;;5093403;28;20204;-63
2021/05/18 16:45:06;;;;;;;3.10;1.27;;;17.50;82.10;;;;;;5092869;28;20749;-63
2021/05/18 16:47:33;;;;;;;3.00;1.00;;;17.70;81.10;;;;;;5093056;28;20691;-66
2021/05/18 16:49:59;;;;;;;2.33;0.80;;;17.80;80.50;;;;;;5093377;28;20240;-64
2021/05/18 16:52:26;;;;;;;1.53;0.70;;;17.90;80.40;;;;;;5093257;28;20204;-65
2021/05/18 16:54:52;;;;;;;2.20;0.90;;;17.90;80.50;;;;;;5093007;28;20204;-63
2021/05/18 16:57:18;;;;;;;2.33;0.53;;;18.00;80.90;;;;;;5093401;28;20224;-65
2021/05/18 16:59:45;;;;;;;3.33;1.00;;;18.00;80.70;;;;;;5093044;28;20204;-64
2021/05/18 17:02:12;;;;;;;2.70;0.70;;;18.00;80.50;;;;;;5092540;28;20678;-63
2021/05/18 17:04:38;;;;;;;2.27;1.10;;;17.90;80.80;;;;;;5092714;28;20227;-62
2021/05/18 17:07:04;;;;;;;1.20;0.70;;;17.80;81.00;;;;;;5092710;28;20220;-63
2021/05/18 17:09:31;;;;;;;1.83;1.03;;;17.70;81.30;;;;;;5093339;28;20201;-62
2021/05/18 17:11:57;;;;;;;1.50;0.77;;;17.70;82.00;;;;;;5093505;28;20577;-61
2021/05/18 17:14:24;;;;;;;2.40;1.90;;;17.60;81.50;;;;;;5092627;28;20208;-63
2021/05/18 17:16:51;;;;;;;4.50;1.50;;;17.50;79.80;;;;;;5093294;28;20444;-62
2021/05/18 17:19:17;;;;;;;3.30;0.87;;;17.40;79.80;;;;;;5092833;28;20264;-63
2021/05/18 17:21:44;;;;;;;1.50;0.63;;;17.40;80.40;;;;;;5092509;28;20204;-63